sensor_id;sensor_type;location;lat;lon;timestamp;temperature;humidity
80279;DHT22;70683;52.492;13.416;2024-01-06T00:00:14;3.80;94.40
80279;DHT22;70683;52.492;13.416;2024-01-06T00:02:42;3.60;94.90
80279;DHT22;70683;52.492;13.416;2024-01-06T00:05:09;3.60;95.10
80279;DHT22;70683;52.492;13.416;2024-01-06T00:07:35;3.60;95.00
80279;DHT22;70683;52.492;13.416;2024-01-06T00:10:02;3.60;95.20
80279;DHT22;70683;52.492;13.416;2024-01-06T00:12:29;3.60;95.20
80279;DHT22;70683;52.492;13.416;2024-01-06T00:14:55;3.60;94.80
80279;DHT22;70683;52.492;13.416;2024-01-06T00:17:22;3.60;95.10
80279;DHT22;70683;52.492;13.416;2024-01-06T00:19:48;3.60;95.20
80279;DHT22;70683;52.492;13.416;2024-01-06T00:22:18;3.60;95.00
80279;DHT22;70683;52.492;13.416;2024-01-06T00:24:45;3.60;95.00
80279;DHT22;70683;52.492;13.416;2024-01-06T00:27:12;3.60;94.70
80279;DHT22;70683;52.492;13.416;2024-01-06T00:29:39;3.60;95.10
80279;DHT22;70683;52.492;13.416;2024-01-06T00:32:06;3.60;95.00
80279;DHT22;70683;52.492;13.416;2024-01-06T00:34:32;3.60;94.90
80279;DHT22;70683;52.492;13.416;2024-01-06T00:36:59;3.70;94.90
80279;DHT22;70683;52.492;13.416;2024-01-06T00:39:26;3.70;94.80
80279;DHT22;70683;52.492;13.416;2024-01-06T00:41:52;3.70;94.80
80279;DHT22;70683;52.492;13.416;2024-01-06T00:44:19;3.70;94.80
80279;DHT22;70683;52.492;13.416;2024-01-06T00:46:46;3.70;95.00
80279;DHT22;70683;52.492;13.416;2024-01-06T00:49:12;3.70;95.50
80279;DHT22;70683;52.492;13.416;2024-01-06T00:51:39;3.70;95.10
80279;DHT22;70683;52.492;13.416;2024-01-06T00:54:06;3.70;94.90
80279;DHT22;70683;52.492;13.416;2024-01-06T00:56:32;3.70;94.80
80279;DHT22;70683;52.492;13.416;2024-01-06T00:58:59;3.70;94.60
80279;DHT22;70683;52.492;13.416;2024-01-06T01:01:25;3.70;94.80
80279;DHT22;70683;52.492;13.416;2024-01-06T01:03:52;3.80;94.80
80279;DHT22;70683;52.492;13.416;2024-01-06T01:06:19;3.70;94.60
80279;DHT22;70683;52.492;13.416;2024-01-06T01:08:45;3.70;94.60
80279;DHT22;70683;52.492;13.416;2024-01-06T01:11:12;3.80;94.60
80279;DHT22;70683;52.492;13.416;2024-01-06T01:13:38;3.70;94.50
80279;DHT22;70683;52.492;13.416;2024-01-06T01:16:06;3.80;94.30
80279;DHT22;70683;52.492;13.416;2024-01-06T01:18:33;3.80;94.20
80279;DHT22;70683;52.492;13.416;2024-01-06T01:20:59;3.70;94.30
80279;DHT22;70683;52.492;13.416;2024-01-06T01:23:26;3.70;94.30
80279;DHT22;70683;52.492;13.416;2024-01-06T01:25:54;3.70;94.50
80279;DHT22;70683;52.492;13.416;2024-01-06T01:28:21;3.70;94.80
80279;DHT22;70683;52.492;13.416;2024-01-06T01:30:47;3.80;94.40
80279;DHT22;70683;52.492;13.416;2024-01-06T01:33:14;3.80;94.10
80279;DHT22;70683;52.492;13.416;2024-01-06T01:35:40;3.80;94.20
80279;DHT22;70683;52.492;13.416;2024-01-06T01:38:07;3.80;94.10
80279;DHT22;70683;52.492;13.416;2024-01-06T01:40:34;3.70;94.30
80279;DHT22;70683;52.492;13.416;2024-01-06T01:43:00;3.60;94.00
80279;DHT22;70683;52.492;13.416;2024-01-06T01:45:27;3.60;94.50
80279;DHT22;70683;52.492;13.416;2024-01-06T01:47:54;3.70;94.60
80279;DHT22;70683;52.492;13.416;2024-01-06T01:50:21;3.70;94.50
80279;DHT22;70683;52.492;13.416;2024-01-06T01:52:48;3.70;94.40
80279;DHT22;70683;52.492;13.416;2024-01-06T01:55:15;3.70;94.20
80279;DHT22;70683;52.492;13.416;2024-01-06T01:57:41;3.60;94.30
80279;DHT22;70683;52.492;13.416;2024-01-06T02:00:10;3.60;94.50
80279;DHT22;70683;52.492;13.416;2024-01-06T02:02:37;3.60;94.40
80279;DHT22;70683;52.492;13.416;2024-01-06T02:05:04;3.70;94.00
80279;DHT22;70683;52.492;13.416;2024-01-06T02:07:31;3.70;94.20
80279;DHT22;70683;52.492;13.416;2024-01-06T02:09:57;3.60;94.20
80279;DHT22;70683;52.492;13.416;2024-01-06T02:12:24;3.50;94.50
80279;DHT22;70683;52.492;13.416;2024-01-06T02:14:50;3.50;94.50
80279;DHT22;70683;52.492;13.416;2024-01-06T02:17:17;3.50;94.40
80279;DHT22;70683;52.492;13.416;2024-01-06T02:19:44;3.60;94.30
80279;DHT22;70683;52.492;13.416;2024-01-06T02:22:10;3.60;94.40
80279;DHT22;70683;52.492;13.416;2024-01-06T02:24:37;3.70;93.70
80279;DHT22;70683;52.492;13.416;2024-01-06T02:27:04;3.60;93.90
80279;DHT22;70683;52.492;13.416;2024-01-06T02:29:30;3.50;94.20
80279;DHT22;70683;52.492;13.416;2024-01-06T02:31:57;3.50;94.10
80279;DHT22;70683;52.492;13.416;2024-01-06T02:34:24;3.50;94.20
80279;DHT22;70683;52.492;13.416;2024-01-06T02:36:51;3.50;94.30
80279;DHT22;70683;52.492;13.416;2024-01-06T02:39:17;3.50;94.40
80279;DHT22;70683;52.492;13.416;2024-01-06T02:41:44;3.40;94.40
80279;DHT22;70683;52.492;13.416;2024-01-06T02:44:11;3.50;94.30
80279;DHT22;70683;52.492;13.416;2024-01-06T02:46:39;3.50;93.70
80279;DHT22;70683;52.492;13.416;2024-01-06T02:49:07;3.40;94.30
80279;DHT22;70683;52.492;13.416;2024-01-06T02:51:34;3.60;93.60
80279;DHT22;70683;52.492;13.416;2024-01-06T02:54:01;3.50;93.80
80279;DHT22;70683;52.492;13.416;2024-01-06T02:56:28;3.40;94.20
80279;DHT22;70683;52.492;13.416;2024-01-06T02:58:54;3.40;94.40
80279;DHT22;70683;52.492;13.416;2024-01-06T03:01:21;3.40;94.40
80279;DHT22;70683;52.492;13.416;2024-01-06T03:03:47;3.50;94.10
80279;DHT22;70683;52.492;13.416;2024-01-06T03:06:14;3.40;94.30
80279;DHT22;70683;52.492;13.416;2024-01-06T03:08:40;3.40;94.60
80279;DHT22;70683;52.492;13.416;2024-01-06T03:11:07;3.30;94.60
80279;DHT22;70683;52.492;13.416;2024-01-06T03:13:34;3.30;94.70
80279;DHT22;70683;52.492;13.416;2024-01-06T03:16:04;3.40;94.40
80279;DHT22;70683;52.492;13.416;2024-01-06T03:18:31;3.40;94.50
80279;DHT22;70683;52.492;13.416;2024-01-06T03:20:58;3.40;94.40
80279;DHT22;70683;52.492;13.416;2024-01-06T03:23:25;3.50;94.00
80279;DHT22;70683;52.492;13.416;2024-01-06T03:25:51;3.40;94.00
80279;DHT22;70683;52.492;13.416;2024-01-06T03:28:18;3.40;94.50
80279;DHT22;70683;52.492;13.416;2024-01-06T03:30:44;3.40;94.60
80279;DHT22;70683;52.492;13.416;2024-01-06T03:33:11;3.30;94.70
80279;DHT22;70683;52.492;13.416;2024-01-06T03:35:38;3.30;94.40
80279;DHT22;70683;52.492;13.416;2024-01-06T03:38:04;3.30;94.50
80279;DHT22;70683;52.492;13.416;2024-01-06T03:40:31;3.40;94.50
80279;DHT22;70683;52.492;13.416;2024-01-06T03:42:58;3.30;94.50
80279;DHT22;70683;52.492;13.416;2024-01-06T03:45:26;3.30;94.60
80279;DHT22;70683;52.492;13.416;2024-01-06T03:47:52;3.30;94.80
80279;DHT22;70683;52.492;13.416;2024-01-06T03:50:19;3.30;94.70
80279;DHT22;70683;52.492;13.416;2024-01-06T03:52:46;3.40;94.70
80279;DHT22;70683;52.492;13.416;2024-01-06T03:55:12;3.50;94.80
80279;DHT22;70683;52.492;13.416;2024-01-06T03:57:39;3.50;94.40
80279;DHT22;70683;52.492;13.416;2024-01-06T04:00:06;3.50;94.10
80279;DHT22;70683;52.492;13.416;2024-01-06T04:02:33;3.50;93.80
80279;DHT22;70683;52.492;13.416;2024-01-06T04:05:00;3.50;94.00
80279;DHT22;70683;52.492;13.416;2024-01-06T04:07:26;3.40;94.00
80279;DHT22;70683;52.492;13.416;2024-01-06T04:09:53;3.40;94.20
80279;DHT22;70683;52.492;13.416;2024-01-06T04:12:20;3.40;94.30
80279;DHT22;70683;52.492;13.416;2024-01-06T04:14:46;3.40;94.30
80279;DHT22;70683;52.492;13.416;2024-01-06T04:17:13;3.40;94.20
80279;DHT22;70683;52.492;13.416;2024-01-06T04:19:39;3.40;94.00
80279;DHT22;70683;52.492;13.416;2024-01-06T04:22:06;3.30;94.20
80279;DHT22;70683;52.492;13.416;2024-01-06T04:24:32;3.30;94.30
80279;DHT22;70683;52.492;13.416;2024-01-06T04:27:01;3.30;94.40
80279;DHT22;70683;52.492;13.416;2024-01-06T04:29:28;3.30;94.60
80279;DHT22;70683;52.492;13.416;2024-01-06T04:31:54;3.30;94.40
80279;DHT22;70683;52.492;13.416;2024-01-06T04:34:21;3.30;94.60
80279;DHT22;70683;52.492;13.416;2024-01-06T04:36:47;3.30;94.80
80279;DHT22;70683;52.492;13.416;2024-01-06T04:39:15;3.30;94.80
80279;DHT22;70683;52.492;13.416;2024-01-06T04:41:42;3.30;95.00
80279;DHT22;70683;52.492;13.416;2024-01-06T04:44:09;3.40;94.90
80279;DHT22;70683;52.492;13.416;2024-01-06T04:46:35;3.40;94.40
80279;DHT22;70683;52.492;13.416;2024-01-06T04:49:02;3.40;94.60
80279;DHT22;70683;52.492;13.416;2024-01-06T04:51:28;3.40;94.80
80279;DHT22;70683;52.492;13.416;2024-01-06T04:53:55;3.50;94.70
80279;DHT22;70683;52.492;13.416;2024-01-06T04:56:22;3.50;94.60
80279;DHT22;70683;52.492;13.416;2024-01-06T04:58:49;3.60;94.40
80279;DHT22;70683;52.492;13.416;2024-01-06T05:01:15;3.60;93.90
80279;DHT22;70683;52.492;13.416;2024-01-06T05:03:42;3.60;94.20
80279;DHT22;70683;52.492;13.416;2024-01-06T05:06:08;3.60;94.50
80279;DHT22;70683;52.492;13.416;2024-01-06T05:08:35;3.60;94.20
80279;DHT22;70683;52.492;13.416;2024-01-06T05:11:05;3.60;94.10
80279;DHT22;70683;52.492;13.416;2024-01-06T05:13:32;3.50;94.30
80279;DHT22;70683;52.492;13.416;2024-01-06T05:15:58;3.50;94.60
80279;DHT22;70683;52.492;13.416;2024-01-06T05:18:25;3.50;94.10
80279;DHT22;70683;52.492;13.416;2024-01-06T05:20:51;3.50;94.10
80279;DHT22;70683;52.492;13.416;2024-01-06T05:23:18;3.40;94.40
80279;DHT22;70683;52.492;13.416;2024-01-06T05:25:45;3.50;94.10
80279;DHT22;70683;52.492;13.416;2024-01-06T05:28:11;3.40;94.10
80279;DHT22;70683;52.492;13.416;2024-01-06T05:30:38;3.40;94.30
80279;DHT22;70683;52.492;13.416;2024-01-06T05:33:05;3.30;94.50
80279;DHT22;70683;52.492;13.416;2024-01-06T05:35:32;3.40;94.70
80279;DHT22;70683;52.492;13.416;2024-01-06T05:37:58;3.30;94.60
80279;DHT22;70683;52.492;13.416;2024-01-06T05:40:26;3.40;94.50
80279;DHT22;70683;52.492;13.416;2024-01-06T05:42:52;3.40;94.40
80279;DHT22;70683;52.492;13.416;2024-01-06T05:45:21;3.40;94.50
80279;DHT22;70683;52.492;13.416;2024-01-06T05:47:48;3.40;94.40
80279;DHT22;70683;52.492;13.416;2024-01-06T05:50:16;3.30;94.50
80279;DHT22;70683;52.492;13.416;2024-01-06T05:52:43;3.20;94.60
80279;DHT22;70683;52.492;13.416;2024-01-06T05:55:09;3.20;94.90
80279;DHT22;70683;52.492;13.416;2024-01-06T05:57:36;3.20;94.90
80279;DHT22;70683;52.492;13.416;2024-01-06T06:00:03;3.30;94.90
80279;DHT22;70683;52.492;13.416;2024-01-06T06:02:30;3.30;94.60
80279;DHT22;70683;52.492;13.416;2024-01-06T06:04:57;3.30;94.50
80279;DHT22;70683;52.492;13.416;2024-01-06T06:07:24;3.30;94.40
80279;DHT22;70683;52.492;13.416;2024-01-06T06:09:51;3.30;94.40
80279;DHT22;70683;52.492;13.416;2024-01-06T06:12:19;3.20;94.70
80279;DHT22;70683;52.492;13.416;2024-01-06T06:14:45;3.20;95.20
80279;DHT22;70683;52.492;13.416;2024-01-06T06:17:12;3.30;95.00
80279;DHT22;70683;52.492;13.416;2024-01-06T06:19:38;3.30;94.80
80279;DHT22;70683;52.492;13.416;2024-01-06T06:22:05;3.30;94.40
80279;DHT22;70683;52.492;13.416;2024-01-06T06:24:32;3.30;94.40
80279;DHT22;70683;52.492;13.416;2024-01-06T06:26:59;3.30;94.70
80279;DHT22;70683;52.492;13.416;2024-01-06T06:29:25;3.30;94.90
80279;DHT22;70683;52.492;13.416;2024-01-06T06:31:52;3.40;94.80
80279;DHT22;70683;52.492;13.416;2024-01-06T06:34:18;3.40;94.40
80279;DHT22;70683;52.492;13.416;2024-01-06T06:36:45;3.50;94.00
80279;DHT22;70683;52.492;13.416;2024-01-06T06:39:12;3.50;93.90
80279;DHT22;70683;52.492;13.416;2024-01-06T06:41:38;3.40;93.90
80279;DHT22;70683;52.492;13.416;2024-01-06T06:44:05;3.20;94.50
80279;DHT22;70683;52.492;13.416;2024-01-06T06:46:31;3.20;94.80
80279;DHT22;70683;52.492;13.416;2024-01-06T06:48:58;3.20;95.00
80279;DHT22;70683;52.492;13.416;2024-01-06T06:51:25;3.30;95.00
80279;DHT22;70683;52.492;13.416;2024-01-06T06:53:53;3.30;95.10
80279;DHT22;70683;52.492;13.416;2024-01-06T06:56:19;3.40;94.70
80279;DHT22;70683;52.492;13.416;2024-01-06T06:58:46;3.40;94.20
80279;DHT22;70683;52.492;13.416;2024-01-06T07:01:15;3.40;94.40
80279;DHT22;70683;52.492;13.416;2024-01-06T07:03:42;3.40;94.90
80279;DHT22;70683;52.492;13.416;2024-01-06T07:06:12;3.50;94.50
80279;DHT22;70683;52.492;13.416;2024-01-06T07:08:39;3.40;94.70
80279;DHT22;70683;52.492;13.416;2024-01-06T07:11:08;3.50;94.50
80279;DHT22;70683;52.492;13.416;2024-01-06T07:13:37;3.50;94.10
80279;DHT22;70683;52.492;13.416;2024-01-06T07:16:05;3.50;93.90
80279;DHT22;70683;52.492;13.416;2024-01-06T07:18:32;3.50;94.00
80279;DHT22;70683;52.492;13.416;2024-01-06T07:20:59;3.40;93.90
80279;DHT22;70683;52.492;13.416;2024-01-06T07:23:25;3.30;93.90
80279;DHT22;70683;52.492;13.416;2024-01-06T07:25:52;3.20;94.10
80279;DHT22;70683;52.492;13.416;2024-01-06T07:28:19;3.10;94.30
80279;DHT22;70683;52.492;13.416;2024-01-06T07:30:46;3.10;94.20
80279;DHT22;70683;52.492;13.416;2024-01-06T07:33:13;3.10;94.50
80279;DHT22;70683;52.492;13.416;2024-01-06T07:35:39;3.10;94.90
80279;DHT22;70683;52.492;13.416;2024-01-06T07:38:08;3.20;95.70
80279;DHT22;70683;52.492;13.416;2024-01-06T07:40:36;3.20;94.80
80279;DHT22;70683;52.492;13.416;2024-01-06T07:43:04;3.30;94.80
80279;DHT22;70683;52.492;13.416;2024-01-06T07:45:31;3.40;95.80
80279;DHT22;70683;52.492;13.416;2024-01-06T07:47:58;3.40;94.50
80279;DHT22;70683;52.492;13.416;2024-01-06T07:50:26;3.40;94.10
80279;DHT22;70683;52.492;13.416;2024-01-06T07:52:54;3.30;95.30
80279;DHT22;70683;52.492;13.416;2024-01-06T07:55:21;3.40;95.50
80279;DHT22;70683;52.492;13.416;2024-01-06T07:57:47;3.30;94.60
80279;DHT22;70683;52.492;13.416;2024-01-06T08:00:14;3.30;94.40
80279;DHT22;70683;52.492;13.416;2024-01-06T08:02:42;3.30;94.70
80279;DHT22;70683;52.492;13.416;2024-01-06T08:05:08;3.30;94.70
80279;DHT22;70683;52.492;13.416;2024-01-06T08:07:36;3.20;94.10
80279;DHT22;70683;52.492;13.416;2024-01-06T08:10:03;3.20;95.30
80279;DHT22;70683;52.492;13.416;2024-01-06T08:12:31;3.20;94.60
80279;DHT22;70683;52.492;13.416;2024-01-06T08:14:57;3.20;95.00
80279;DHT22;70683;52.492;13.416;2024-01-06T08:17:24;3.20;95.10
80279;DHT22;70683;52.492;13.416;2024-01-06T08:19:51;3.20;95.00
80279;DHT22;70683;52.492;13.416;2024-01-06T08:22:18;3.20;94.20
80279;DHT22;70683;52.492;13.416;2024-01-06T08:24:44;3.10;94.20
80279;DHT22;70683;52.492;13.416;2024-01-06T08:27:11;3.00;94.10
80279;DHT22;70683;52.492;13.416;2024-01-06T08:29:38;2.90;94.40
80279;DHT22;70683;52.492;13.416;2024-01-06T08:32:05;2.90;95.10
80279;DHT22;70683;52.492;13.416;2024-01-06T08:34:33;2.80;96.20
80279;DHT22;70683;52.492;13.416;2024-01-06T08:37:00;2.90;96.90
80279;DHT22;70683;52.492;13.416;2024-01-06T08:39:26;3.10;97.00
80279;DHT22;70683;52.492;13.416;2024-01-06T08:41:53;3.20;94.70
80279;DHT22;70683;52.492;13.416;2024-01-06T08:44:19;3.20;94.40
80279;DHT22;70683;52.492;13.416;2024-01-06T08:46:46;3.10;94.00
80279;DHT22;70683;52.492;13.416;2024-01-06T08:49:12;3.20;94.00
80279;DHT22;70683;52.492;13.416;2024-01-06T08:51:39;3.20;94.70
80279;DHT22;70683;52.492;13.416;2024-01-06T08:54:06;3.10;94.60
80279;DHT22;70683;52.492;13.416;2024-01-06T08:56:33;3.10;94.80
80279;DHT22;70683;52.492;13.416;2024-01-06T08:59:02;3.10;94.90
80279;DHT22;70683;52.492;13.416;2024-01-06T09:01:28;3.30;94.90
80279;DHT22;70683;52.492;13.416;2024-01-06T09:03:55;3.30;93.00
80279;DHT22;70683;52.492;13.416;2024-01-06T09:06:21;3.30;94.00
80279;DHT22;70683;52.492;13.416;2024-01-06T09:08:49;3.20;93.90
80279;DHT22;70683;52.492;13.416;2024-01-06T09:11:15;3.30;92.80
80279;DHT22;70683;52.492;13.416;2024-01-06T09:13:42;3.20;94.10
80279;DHT22;70683;52.492;13.416;2024-01-06T09:16:09;3.20;94.90
80279;DHT22;70683;52.492;13.416;2024-01-06T09:18:40;3.20;94.30
80279;DHT22;70683;52.492;13.416;2024-01-06T09:21:07;3.20;94.20
80279;DHT22;70683;52.492;13.416;2024-01-06T09:23:34;3.20;93.50
80279;DHT22;70683;52.492;13.416;2024-01-06T09:26:00;3.20;92.90
80279;DHT22;70683;52.492;13.416;2024-01-06T09:28:27;3.10;93.20
80279;DHT22;70683;52.492;13.416;2024-01-06T09:30:54;3.10;95.00
80279;DHT22;70683;52.492;13.416;2024-01-06T09:33:22;3.10;95.10
80279;DHT22;70683;52.492;13.416;2024-01-06T09:35:49;3.20;95.10
80279;DHT22;70683;52.492;13.416;2024-01-06T09:38:16;3.20;93.60
80279;DHT22;70683;52.492;13.416;2024-01-06T09:40:44;3.10;93.70
80279;DHT22;70683;52.492;13.416;2024-01-06T09:43:12;3.20;93.90
80279;DHT22;70683;52.492;13.416;2024-01-06T09:45:39;3.20;93.70
80279;DHT22;70683;52.492;13.416;2024-01-06T09:48:11;3.10;93.10
80279;DHT22;70683;52.492;13.416;2024-01-06T09:50:42;3.10;94.30
80279;DHT22;70683;52.492;13.416;2024-01-06T09:53:11;3.10;93.10
80279;DHT22;70683;52.492;13.416;2024-01-06T09:55:39;3.00;93.00
80279;DHT22;70683;52.492;13.416;2024-01-06T09:58:06;3.00;94.00
80279;DHT22;70683;52.492;13.416;2024-01-06T10:00:32;2.80;93.30
80279;DHT22;70683;52.492;13.416;2024-01-06T10:02:59;2.80;93.40
80279;DHT22;70683;52.492;13.416;2024-01-06T10:05:26;2.80;94.80
80279;DHT22;70683;52.492;13.416;2024-01-06T10:07:52;3.00;95.60
80279;DHT22;70683;52.492;13.416;2024-01-06T10:10:19;3.10;93.70
80279;DHT22;70683;52.492;13.416;2024-01-06T10:12:45;3.20;93.80
80279;DHT22;70683;52.492;13.416;2024-01-06T10:15:12;3.20;93.80
80279;DHT22;70683;52.492;13.416;2024-01-06T10:17:40;3.10;92.70
80279;DHT22;70683;52.492;13.416;2024-01-06T10:20:10;3.10;93.10
80279;DHT22;70683;52.492;13.416;2024-01-06T10:22:38;3.10;92.60
80279;DHT22;70683;52.492;13.416;2024-01-06T10:25:07;3.10;93.80
80279;DHT22;70683;52.492;13.416;2024-01-06T10:27:35;3.10;93.20
80279;DHT22;70683;52.492;13.416;2024-01-06T10:30:02;3.20;94.00
80279;DHT22;70683;52.492;13.416;2024-01-06T10:32:32;3.30;94.40
80279;DHT22;70683;52.492;13.416;2024-01-06T10:35:00;3.30;93.20
80279;DHT22;70683;52.492;13.416;2024-01-06T10:37:30;3.30;92.40
80279;DHT22;70683;52.492;13.416;2024-01-06T10:40:06;3.40;92.80
80279;DHT22;70683;52.492;13.416;2024-01-06T10:42:33;3.40;92.60
80279;DHT22;70683;52.492;13.416;2024-01-06T10:45:01;3.40;92.40
80279;DHT22;70683;52.492;13.416;2024-01-06T10:47:30;3.40;91.80
80279;DHT22;70683;52.492;13.416;2024-01-06T10:49:59;3.40;92.50
80279;DHT22;70683;52.492;13.416;2024-01-06T10:52:27;3.50;93.20
80279;DHT22;70683;52.492;13.416;2024-01-06T10:54:54;3.40;91.60
80279;DHT22;70683;52.492;13.416;2024-01-06T10:57:22;3.40;92.50
80279;DHT22;70683;52.492;13.416;2024-01-06T10:59:50;3.50;92.50
80279;DHT22;70683;52.492;13.416;2024-01-06T11:02:17;3.50;92.30
80279;DHT22;70683;52.492;13.416;2024-01-06T11:04:46;3.60;92.90
80279;DHT22;70683;52.492;13.416;2024-01-06T11:07:16;3.50;91.60
80279;DHT22;70683;52.492;13.416;2024-01-06T11:12:22;3.20;91.50
80279;DHT22;70683;52.492;13.416;2024-01-06T11:14:49;3.20;92.80
80279;DHT22;70683;52.492;13.416;2024-01-06T11:20:04;3.10;92.00
80279;DHT22;70683;52.492;13.416;2024-01-06T11:22:27;3.30;92.60
80279;DHT22;70683;52.492;13.416;2024-01-06T11:25:04;3.30;91.70
80279;DHT22;70683;52.492;13.416;2024-01-06T11:27:31;3.30;91.40
80279;DHT22;70683;52.492;13.416;2024-01-06T11:29:59;3.20;91.20
80279;DHT22;70683;52.492;13.416;2024-01-06T11:32:30;3.30;91.40
80279;DHT22;70683;52.492;13.416;2024-01-06T11:35:06;3.20;91.30
80279;DHT22;70683;52.492;13.416;2024-01-06T11:40:25;3.00;91.90
80279;DHT22;70683;52.492;13.416;2024-01-06T11:43:07;3.10;92.80
80279;DHT22;70683;52.492;13.416;2024-01-06T11:45:37;3.20;92.90
80279;DHT22;70683;52.492;13.416;2024-01-06T11:48:05;3.20;91.60
80279;DHT22;70683;52.492;13.416;2024-01-06T11:50:34;3.20;91.20
80279;DHT22;70683;52.492;13.416;2024-01-06T11:53:03;3.20;91.60
80279;DHT22;70683;52.492;13.416;2024-01-06T11:55:29;3.10;91.20
80279;DHT22;70683;52.492;13.416;2024-01-06T11:57:59;3.00;91.30
80279;DHT22;70683;52.492;13.416;2024-01-06T12:00:29;3.00;91.10
80279;DHT22;70683;52.492;13.416;2024-01-06T12:02:56;2.90;91.20
80279;DHT22;70683;52.492;13.416;2024-01-06T12:05:23;2.90;91.70
80279;DHT22;70683;52.492;13.416;2024-01-06T12:07:55;2.90;92.00
80279;DHT22;70683;52.492;13.416;2024-01-06T12:10:23;3.00;92.20
80279;DHT22;70683;52.492;13.416;2024-01-06T12:12:56;3.10;91.80
80279;DHT22;70683;52.492;13.416;2024-01-06T12:15:24;3.20;90.70
80279;DHT22;70683;52.492;13.416;2024-01-06T12:17:51;3.20;90.30
80279;DHT22;70683;52.492;13.416;2024-01-06T12:20:18;3.10;90.90
80279;DHT22;70683;52.492;13.416;2024-01-06T12:22:45;3.10;90.90
80279;DHT22;70683;52.492;13.416;2024-01-06T12:25:12;3.10;90.80
80279;DHT22;70683;52.492;13.416;2024-01-06T12:27:43;3.00;90.80
80279;DHT22;70683;52.492;13.416;2024-01-06T12:30:15;3.00;91.10
80279;DHT22;70683;52.492;13.416;2024-01-06T12:32:43;2.90;91.30
80279;DHT22;70683;52.492;13.416;2024-01-06T12:35:11;3.00;91.30
80279;DHT22;70683;52.492;13.416;2024-01-06T12:37:39;3.00;90.80
80279;DHT22;70683;52.492;13.416;2024-01-06T12:40:08;2.90;90.90
80279;DHT22;70683;52.492;13.416;2024-01-06T12:42:35;3.00;90.40
80279;DHT22;70683;52.492;13.416;2024-01-06T12:45:03;2.90;90.90
80279;DHT22;70683;52.492;13.416;2024-01-06T12:47:30;2.90;91.30
80279;DHT22;70683;52.492;13.416;2024-01-06T12:49:58;2.90;91.50
80279;DHT22;70683;52.492;13.416;2024-01-06T12:52:25;2.90;91.20
80279;DHT22;70683;52.492;13.416;2024-01-06T12:54:51;2.90;92.60
80279;DHT22;70683;52.492;13.416;2024-01-06T12:57:19;3.00;92.20
80279;DHT22;70683;52.492;13.416;2024-01-06T12:59:45;3.10;90.90
80279;DHT22;70683;52.492;13.416;2024-01-06T13:02:12;3.00;91.00
80279;DHT22;70683;52.492;13.416;2024-01-06T13:04:39;2.90;90.80
80279;DHT22;70683;52.492;13.416;2024-01-06T13:07:05;2.90;90.80
80279;DHT22;70683;52.492;13.416;2024-01-06T13:09:32;2.80;90.60
80279;DHT22;70683;52.492;13.416;2024-01-06T13:12:00;2.70;91.10
80279;DHT22;70683;52.492;13.416;2024-01-06T13:14:27;2.80;90.80
80279;DHT22;70683;52.492;13.416;2024-01-06T13:16:56;2.70;91.50
80279;DHT22;70683;52.492;13.416;2024-01-06T13:19:23;2.70;92.10
80279;DHT22;70683;52.492;13.416;2024-01-06T13:21:50;2.60;91.80
80279;DHT22;70683;52.492;13.416;2024-01-06T13:24:16;2.70;92.10
80279;DHT22;70683;52.492;13.416;2024-01-06T13:26:43;2.80;92.00
80279;DHT22;70683;52.492;13.416;2024-01-06T13:29:09;2.90;92.50
80279;DHT22;70683;52.492;13.416;2024-01-06T13:31:37;3.00;91.50
80279;DHT22;70683;52.492;13.416;2024-01-06T13:34:05;3.00;90.70
80279;DHT22;70683;52.492;13.416;2024-01-06T13:36:32;3.00;90.00
80279;DHT22;70683;52.492;13.416;2024-01-06T13:38:59;2.90;90.20
80279;DHT22;70683;52.492;13.416;2024-01-06T13:41:25;2.90;90.40
80279;DHT22;70683;52.492;13.416;2024-01-06T13:43:52;2.80;90.30
80279;DHT22;70683;52.492;13.416;2024-01-06T13:46:20;2.60;90.60
80279;DHT22;70683;52.492;13.416;2024-01-06T13:48:47;2.60;90.50
80279;DHT22;70683;52.492;13.416;2024-01-06T13:51:14;2.70;90.90
80279;DHT22;70683;52.492;13.416;2024-01-06T13:53:41;2.60;90.70
80279;DHT22;70683;52.492;13.416;2024-01-06T13:56:08;2.70;90.40
80279;DHT22;70683;52.492;13.416;2024-01-06T13:58:35;2.60;90.80
80279;DHT22;70683;52.492;13.416;2024-01-06T14:01:03;2.60;91.20
80279;DHT22;70683;52.492;13.416;2024-01-06T14:03:30;2.70;91.40
80279;DHT22;70683;52.492;13.416;2024-01-06T14:05:56;2.70;90.80
80279;DHT22;70683;52.492;13.416;2024-01-06T14:08:23;2.80;90.70
80279;DHT22;70683;52.492;13.416;2024-01-06T14:10:50;2.80;90.60
80279;DHT22;70683;52.492;13.416;2024-01-06T14:13:16;2.90;90.80
80279;DHT22;70683;52.492;13.416;2024-01-06T14:15:43;2.90;90.00
80279;DHT22;70683;52.492;13.416;2024-01-06T14:18:10;2.90;89.00
80279;DHT22;70683;52.492;13.416;2024-01-06T14:20:38;2.90;89.20
80279;DHT22;70683;52.492;13.416;2024-01-06T14:23:06;2.80;90.10
80279;DHT22;70683;52.492;13.416;2024-01-06T14:25:33;2.70;90.30
80279;DHT22;70683;52.492;13.416;2024-01-06T14:27:59;2.60;90.60
80279;DHT22;70683;52.492;13.416;2024-01-06T14:30:26;2.60;91.00
80279;DHT22;70683;52.492;13.416;2024-01-06T14:32:53;2.70;91.00
80279;DHT22;70683;52.492;13.416;2024-01-06T14:35:19;2.60;90.30
80279;DHT22;70683;52.492;13.416;2024-01-06T14:37:46;2.60;90.40
80279;DHT22;70683;52.492;13.416;2024-01-06T14:40:13;2.60;90.80
80279;DHT22;70683;52.492;13.416;2024-01-06T14:42:40;2.70;90.70
80279;DHT22;70683;52.492;13.416;2024-01-06T14:45:07;2.80;90.20
80279;DHT22;70683;52.492;13.416;2024-01-06T14:47:34;2.90;88.70
80279;DHT22;70683;52.492;13.416;2024-01-06T14:50:00;2.80;88.80
80279;DHT22;70683;52.492;13.416;2024-01-06T14:52:27;2.60;90.10
80279;DHT22;70683;52.492;13.416;2024-01-06T14:54:54;2.50;90.10
80279;DHT22;70683;52.492;13.416;2024-01-06T14:57:20;2.50;90.50
80279;DHT22;70683;52.492;13.416;2024-01-06T14:59:47;2.60;90.50
80279;DHT22;70683;52.492;13.416;2024-01-06T15:02:14;2.60;90.40
80279;DHT22;70683;52.492;13.416;2024-01-06T15:04:40;2.60;90.30
80279;DHT22;70683;52.492;13.416;2024-01-06T15:07:07;2.70;90.10
80279;DHT22;70683;52.492;13.416;2024-01-06T15:09:38;2.70;90.00
80279;DHT22;70683;52.492;13.416;2024-01-06T15:12:06;2.80;89.90
80279;DHT22;70683;52.492;13.416;2024-01-06T15:14:32;2.70;88.70
80279;DHT22;70683;52.492;13.416;2024-01-06T15:17:00;2.70;90.20
80279;DHT22;70683;52.492;13.416;2024-01-06T15:19:26;2.70;89.20
80279;DHT22;70683;52.492;13.416;2024-01-06T15:21:54;2.70;88.20
80279;DHT22;70683;52.492;13.416;2024-01-06T15:24:21;2.70;88.00
80279;DHT22;70683;52.492;13.416;2024-01-06T15:26:51;2.60;88.90
80279;DHT22;70683;52.492;13.416;2024-01-06T15:29:18;2.60;89.10
80279;DHT22;70683;52.492;13.416;2024-01-06T15:31:45;2.60;90.00
80279;DHT22;70683;52.492;13.416;2024-01-06T15:34:12;2.60;90.10
80279;DHT22;70683;52.492;13.416;2024-01-06T15:36:39;2.60;89.60